Time;durP1;ratioP1;P1;durP2;ratioP2;P2;SDS_P1;SDS_P2;PMS_P1;PMS_P2;Temp;Humidity;BMP_temperature;BMP_pressure;BME280_temperature;BME280_humidity;BME280_pressure;Samples;Min_cycle;Max_cycle;Signal;HPM_P1;HPM_P2
2023/10/17 00:00:38;;;;;;;15.48;9.95;;;;;;;;;;2074327;28;20029;-58
2023/10/17 00:01:44;;;;;;;14.68;8.73;;;;;;;;;;2074223;28;20042;-58
2023/10/17 00:02:45;;;;;;;16.88;10.45;;;;;;;;;;2074465;28;20033;-58
2023/10/17 00:03:46;;;;;;;15.25;9.30;;;;;;;;;;2073955;28;20504;-58
2023/10/17 00:04:47;;;;;;;16.98;10.32;;;;;;;;;;2073969;28;20049;-58
2023/10/17 00:05:48;;;;;;;18.13;10.75;;;;;;;;;;2074469;28;20062;-58
2023/10/17 00:06:50;;;;;;;15.20;10.10;;;;;;;;;;2074399;28;20038;-58
2023/10/17 00:07:51;;;;;;;14.48;9.88;;;;;;;;;;2073925;28;20053;-58
2023/10/17 00:08:52;;;;;;;14.75;10.45;;;;;;;;;;2074394;28;20466;-58
2023/10/17 00:09:55;;;;;;;17.02;9.32;;;;;;;;;;2074218;28;20026;-58
2023/10/17 00:10:57;;;;;;;14.20;9.30;;;;;;;;;;2074143;28;20042;-58
2023/10/17 00:11:58;;;;;;;15.15;9.32;;;;;;;;;;2074178;28;20029;-58
2023/10/17 00:13:18;;;;;;;15.15;10.70;;;;;;;;;;2074179;28;20053;-58
2023/10/17 00:14:19;;;;;;;12.70;8.73;;;;;;;;;;2074066;28;20053;-58
2023/10/17 00:15:35;;;;;;;13.77;9.35;;;;;;;;;;2073558;28;20046;-58
2023/10/17 00:16:37;;;;;;;15.05;9.63;;;;;;;;;;2074377;28;20121;-58
2023/10/17 00:17:37;;;;;;;15.00;10.18;;;;;;;;;;2073861;28;20053;-58
2023/10/17 00:18:38;;;;;;;14.50;9.52;;;;;;;;;;2073901;28;20398;-58
2023/10/17 00:19:41;;;;;;;15.07;9.75;;;;;;;;;;2074345;28;20038;-58
2023/10/17 00:20:43;;;;;;;16.08;10.35;;;;;;;;;;2074065;28;20030;-58
2023/10/17 00:21:45;;;;;;;15.48;9.63;;;;;;;;;;2074321;28;20042;-58
2023/10/17 00:22:46;;;;;;;13.90;8.80;;;;;;;;;;2074156;28;20038;-58
2023/10/17 00:23:47;;;;;;;15.15;10.23;;;;;;;;;;2074289;28;20114;-58
2023/10/17 00:24:48;;;;;;;16.23;10.50;;;;;;;;;;2074259;28;20037;-58
2023/10/17 00:25:49;;;;;;;17.13;10.73;;;;;;;;;;2073559;28;20046;-58
2023/10/17 00:26:49;;;;;;;16.27;10.18;;;;;;;;;;2074285;28;20401;-58
2023/10/17 00:27:50;;;;;;;15.13;10.35;;;;;;;;;;2074224;28;20038;-58
2023/10/17 00:28:52;;;;;;;15.30;10.52;;;;;;;;;;2073757;28;20037;-58
2023/10/17 00:29:54;;;;;;;18.48;10.38;;;;;;;;;;2074084;28;20037;-58
2023/10/17 00:30:55;;;;;;;17.40;10.13;;;;;;;;;;2074216;28;20022;-58
2023/10/17 00:31:56;;;;;;;16.13;10.30;;;;;;;;;;2073634;28;20441;-58
2023/10/17 00:32:56;;;;;;;16.55;9.93;;;;;;;;;;2073970;28;20493;-58
2023/10/17 00:34:00;;;;;;;15.48;9.77;;;;;;;;;;2074096;28;20026;-58
2023/10/17 00:35:08;;;;;;;14.52;9.35;;;;;;;;;;2074225;28;20033;-58
2023/10/17 00:36:14;;;;;;;15.40;9.65;;;;;;;;;;2074271;28;20026;-58
2023/10/17 00:37:15;;;;;;;14.55;9.90;;;;;;;;;;2074105;28;20072;-58
2023/10/17 00:38:15;;;;;;;17.77;10.63;;;;;;;;;;2073695;28;20046;-58
2023/10/17 00:39:22;;;;;;;17.80;10.15;;;;;;;;;;2073397;28;20095;-58
2023/10/17 00:40:34;;;;;;;16.42;10.50;;;;;;;;;;2073659;28;20057;-58
2023/10/17 00:41:50;;;;;;;14.93;10.25;;;;;;;;;;2073272;28;20489;-58
2023/10/17 00:42:51;;;;;;;14.07;9.40;;;;;;;;;;2067526;28;20034;-58
2023/10/17 00:43:53;;;;;;;16.80;10.55;;;;;;;;;;2072469;28;20152;-58
2023/10/17 00:44:54;;;;;;;16.58;9.85;;;;;;;;;;2073141;28;20034;-58
2023/10/17 00:45:55;;;;;;;15.18;9.48;;;;;;;;;;2074161;28;20030;-58
2023/10/17 00:46:59;;;;;;;15.43;9.52;;;;;;;;;;2073711;28;20076;-58
2023/10/17 00:48:00;;;;;;;15.25;9.80;;;;;;;;;;2073419;28;20461;-58
2023/10/17 00:49:01;;;;;;;18.08;10.70;;;;;;;;;;2074130;28;20046;-58
2023/10/17 00:50:08;;;;;;;18.00;11.27;;;;;;;;;;2073375;28;20030;-58
2023/10/17 00:51:08;;;;;;;14.40;10.00;;;;;;;;;;2073691;28;20037;-58
2023/10/17 00:52:18;;;;;;;16.42;10.23;;;;;;;;;;2072801;28;20422;-58
2023/10/17 00:53:20;;;;;;;14.13;9.68;;;;;;;;;;2072741;28;20054;-58
2023/10/17 00:54:21;;;;;;;14.45;9.95;;;;;;;;;;2073742;28;20050;-58
2023/10/17 00:55:24;;;;;;;14.30;9.40;;;;;;;;;;2074058;28;20088;-58
2023/10/17 00:56:26;;;;;;;17.15;10.13;;;;;;;;;;2073719;28;20501;-58
2023/10/17 00:57:27;;;;;;;15.90;10.02;;;;;;;;;;2073662;28;20157;-58
2023/10/17 00:58:29;;;;;;;14.13;9.20;;;;;;;;;;2073850;28;20038;-57
2023/10/17 00:59:30;;;;;;;13.70;10.07;;;;;;;;;;2073337;28;20037;-58
2023/10/17 01:00:37;;;;;;;18.42;9.65;;;;;;;;;;2065137;28;20065;-59
2023/10/17 01:01:40;;;;;;;15.52;10.35;;;;;;;;;;2072833;28;20053;-58
2023/10/17 01:02:47;;;;;;;17.67;10.10;;;;;;;;;;2074078;28;20371;-58
2023/10/17 01:03:52;;;;;;;19.15;10.82;;;;;;;;;;2073588;28;20049;-58
2023/10/17 01:04:52;;;;;;;16.13;11.35;;;;;;;;;;2073846;28;20486;-58
2023/10/17 01:07:23;;;;;;;16.27;10.63;;;;;;;;;;2073603;28;20057;-59
2023/10/17 01:08:36;;;;;;;17.88;11.23;;;;;;;;;;2074104;28;20049;-58
2023/10/17 01:09:37;;;;;;;20.45;11.68;;;;;;;;;;2073516;28;20049;-58
2023/10/17 01:10:38;;;;;;;18.10;11.50;;;;;;;;;;2073870;28;20423;-58
2023/10/17 01:11:39;;;;;;;18.70;11.48;;;;;;;;;;2072346;28;20525;-58
2023/10/17 01:13:02;;;;;;;20.20;12.25;;;;;;;;;;2072664;28;20046;-58
2023/10/17 01:14:03;;;;;;;16.48;10.68;;;;;;;;;;2073783;28;20378;-58
2023/10/17 01:15:04;;;;;;;19.98;11.70;;;;;;;;;;2073118;28;20038;-59
2023/10/17 01:16:07;;;;;;;18.88;10.63;;;;;;;;;;2073220;28;20045;-59
2023/10/17 01:17:12;;;;;;;18.15;10.90;;;;;;;;;;2073425;28;20042;-59
2023/10/17 01:18:13;;;;;;;16.92;10.65;;;;;;;;;;2072867;28;20050;-58
2023/10/17 01:19:19;;;;;;;18.25;11.93;;;;;;;;;;2064484;28;20050;-59
2023/10/17 01:20:20;;;;;;;24.10;11.45;;;;;;;;;;2073653;28;20045;-58
2023/10/17 01:21:22;;;;;;;18.83;11.40;;;;;;;;;;2072465;28;20045;-58
2023/10/17 01:22:22;;;;;;;19.25;10.95;;;;;;;;;;2072595;28;20056;-57
2023/10/17 01:23:23;;;;;;;20.88;11.75;;;;;;;;;;2073868;28;20038;-59
2023/10/17 01:24:25;;;;;;;17.08;10.82;;;;;;;;;;2073307;28;20050;-58
2023/10/17 01:25:29;;;;;;;16.70;11.02;;;;;;;;;;2073521;28;20053;-58
2023/10/17 01:26:30;;;;;;;21.33;11.50;;;;;;;;;;2073814;28;20037;-58
2023/10/17 01:27:31;;;;;;;17.83;11.77;;;;;;;;;;2072565;28;20049;-58
2023/10/17 01:28:33;;;;;;;19.38;11.88;;;;;;;;;;2072868;28;20398;-58
2023/10/17 01:29:34;;;;;;;19.52;12.13;;;;;;;;;;2073699;28;20041;-58
2023/10/17 01:30:35;;;;;;;20.85;12.45;;;;;;;;;;2073428;28;20057;-58
2023/10/17 01:31:38;;;;;;;18.50;11.32;;;;;;;;;;2072291;28;20389;-58
2023/10/17 01:32:41;;;;;;;15.85;10.85;;;;;;;;;;2073356;28;20025;-58
2023/10/17 01:33:46;;;;;;;15.82;10.23;;;;;;;;;;2073109;28;20493;-58
2023/10/17 01:34:47;;;;;;;18.13;11.18;;;;;;;;;;2072567;28;20536;-58
2023/10/17 01:35:48;;;;;;;16.35;11.13;;;;;;;;;;2064796;28;20548;-57
2023/10/17 01:36:49;;;;;;;18.60;11.27;;;;;;;;;;2056850;28;20094;-58
2023/10/17 01:37:49;;;;;;;18.85;11.57;;;;;;;;;;2072899;28;20506;-58
2023/10/17 01:38:50;;;;;;;16.40;10.85;;;;;;;;;;2073196;28;20444;-58
2023/10/17 01:39:51;;;;;;;18.40;11.65;;;;;;;;;;2073807;28;20046;-58
2023/10/17 01:40:53;;;;;;;18.30;11.80;;;;;;;;;;2073782;28;20049;-58
2023/10/17 01:41:54;;;;;;;18.20;11.90;;;;;;;;;;2073378;28;20049;-58
2023/10/17 01:42:57;;;;;;;16.98;10.88;;;;;;;;;;2073918;28;20034;-59
2023/10/17 01:43:57;;;;;;;17.13;12.18;;;;;;;;;;2073008;28;20038;-58
2023/10/17 01:44:58;;;;;;;19.13;11.88;;;;;;;;;;2072459;28;20050;-58
2023/10/17 01:46:01;;;;;;;19.02;11.88;;;;;;;;;;2073152;28;20402;-58
2023/10/17 01:47:02;;;;;;;19.08;12.20;;;;;;;;;;2073703;28;20477;-58
2023/10/17 01:48:03;;;;;;;20.52;12.20;;;;;;;;;;2073208;28;20057;-58
2023/10/17 01:49:10;;;;;;;19.48;12.18;;;;;;;;;;2064688;28;20042;-58
2023/10/17 01:50:11;;;;;;;20.52;13.05;;;;;;;;;;2073064;28;20042;-58
2023/10/17 01:51:13;;;;;;;19.23;12.70;;;;;;;;;;2073004;28;20457;-58
2023/10/17 01:52:13;;;;;;;17.88;11.68;;;;;;;;;;2072749;28;20053;-59
2023/10/17 01:53:14;;;;;;;20.13;13.40;;;;;;;;;;2072988;28;20068;-58
2023/10/17 01:54:16;;;;;;;18.17;10.98;;;;;;;;;;2072817;28;20498;-58
2023/10/17 01:55:17;;;;;;;18.52;12.82;;;;;;;;;;2072427;28;20046;-58
2023/10/17 01:56:25;;;;;;;21.17;13.63;;;;;;;;;;2074016;28;20038;-58
2023/10/17 01:57:27;;;;;;;19.17;12.52;;;;;;;;;;2067234;28;20111;-59
2023/10/17 01:58:29;;;;;;;18.15;12.13;;;;;;;;;;2074166;28;20105;-58
2023/10/17 01:59:33;;;;;;;22.27;13.93;;;;;;;;;;2066074;28;20067;-58
2023/10/17 02:00:38;;;;;;;19.27;12.45;;;;;;;;;;2066334;28;20053;-58
2023/10/17 02:01:40;;;;;;;22.58;14.00;;;;;;;;;;2074061;28;20041;-60
2023/10/17 02:02:42;;;;;;;18.33;12.10;;;;;;;;;;2066683;28;20426;-57
2023/10/17 02:03:46;;;;;;;22.25;13.57;;;;;;;;;;2066968;28;20050;-58
2023/10/17 02:04:49;;;;;;;20.58;12.77;;;;;;;;;;2075336;28;20042;-58
2023/10/17 02:05:50;;;;;;;21.25;12.80;;;;;;;;;;2074959;28;20410;-57
2023/10/17 02:06:51;;;;;;;24.48;13.68;;;;;;;;;;2074516;28;20037;-58
2023/10/17 02:07:55;;;;;;;24.60;13.25;;;;;;;;;;2074626;28;20080;-57
2023/10/17 02:08:58;;;;;;;22.50;14.30;;;;;;;;;;2074567;28;20041;-58
2023/10/17 02:10:00;;;;;;;26.55;14.55;;;;;;;;;;2074163;28;20049;-58
2023/10/17 02:11:01;;;;;;;21.40;13.00;;;;;;;;;;2058339;28;20046;-58
2023/10/17 02:12:02;;;;;;;20.90;12.85;;;;;;;;;;2050040;28;20051;-59
2023/10/17 02:13:04;;;;;;;22.75;13.57;;;;;;;;;;2066234;28;20048;-58
2023/10/17 02:14:06;;;;;;;21.33;13.43;;;;;;;;;;2066689;28;20045;-58
2023/10/17 02:15:08;;;;;;;22.92;13.00;;;;;;;;;;2066492;28;20392;-58
2023/10/17 02:16:12;;;;;;;20.75;12.50;;;;;;;;;;2074412;28;20058;-58
2023/10/17 02:17:15;;;;;;;22.35;13.90;;;;;;;;;;2074612;28;20049;-58
2023/10/17 02:18:16;;;;;;;23.80;14.23;;;;;;;;;;2065659;28;20050;-58
2023/10/17 02:19:19;;;;;;;21.45;13.77;;;;;;;;;;2066510;28;20367;-58
2023/10/17 02:20:21;;;;;;;23.13;14.32;;;;;;;;;;2074491;28;20529;-58
2023/10/17 02:21:22;;;;;;;26.88;14.25;;;;;;;;;;2074438;28;20048;-58
2023/10/17 02:22:25;;;;;;;23.73;14.38;;;;;;;;;;2066121;28;20050;-58
2023/10/17 02:23:27;;;;;;;23.13;15.00;;;;;;;;;;2073980;28;20057;-58
2023/10/17 02:24:29;;;;;;;24.38;16.02;;;;;;;;;;2074585;28;20042;-58
2023/10/17 02:25:34;;;;;;;28.20;15.48;;;;;;;;;;2074434;28;20517;-58
2023/10/17 02:26:42;;;;;;;23.63;14.80;;;;;;;;;;2075071;28;20061;-58
2023/10/17 02:27:44;;;;;;;28.23;15.65;;;;;;;;;;2075255;28;20037;-58
2023/10/17 02:28:46;;;;;;;28.05;15.63;;;;;;;;;;2074491;28;20034;-57
2023/10/17 02:29:48;;;;;;;24.85;15.13;;;;;;;;;;2066210;28;20050;-58
2023/10/17 02:30:49;;;;;;;23.70;15.07;;;;;;;;;;2074404;28;20034;-58
2023/10/17 02:31:52;;;;;;;24.75;16.50;;;;;;;;;;2073568;28;20069;-58
2023/10/17 02:32:56;;;;;;;23.90;14.50;;;;;;;;;;2074741;28;20478;-58
2023/10/17 02:33:56;;;;;;;25.15;15.57;;;;;;;;;;2075058;28;20038;-58
2023/10/17 02:34:58;;;;;;;25.50;15.27;;;;;;;;;;2074404;28;20038;-58
2023/10/17 02:36:07;;;;;;;23.42;15.02;;;;;;;;;;2073808;28;20038;-58
2023/10/17 02:37:11;;;;;;;24.30;15.07;;;;;;;;;;2074508;28;20061;-58
2023/10/17 02:38:11;;;;;;;27.02;15.73;;;;;;;;;;2074886;28;20038;-58
2023/10/17 02:39:12;;;;;;;26.00;16.08;;;;;;;;;;2075001;28;20477;-58
2023/10/17 02:40:23;;;;;;;26.65;16.13;;;;;;;;;;2073709;28;20054;-58
2023/10/17 02:41:28;;;;;;;27.35;16.02;;;;;;;;;;2074114;28;20536;-57
2023/10/17 02:42:29;;;;;;;26.77;16.50;;;;;;;;;;2075139;28;20049;-58
2023/10/17 02:43:30;;;;;;;26.50;15.95;;;;;;;;;;2074890;28;20029;-58
2023/10/17 02:44:31;;;;;;;26.48;15.38;;;;;;;;;;2074859;28;20597;-58
2023/10/17 02:45:31;;;;;;;27.98;16.95;;;;;;;;;;2074407;28;20410;-58
2023/10/17 02:46:33;;;;;;;28.38;16.40;;;;;;;;;;2073987;28;20050;-58
2023/10/17 02:47:35;;;;;;;27.33;16.88;;;;;;;;;;2074314;28;20053;-58
2023/10/17 02:48:38;;;;;;;27.35;17.23;;;;;;;;;;2074856;28;20375;-58
2023/10/17 02:49:43;;;;;;;26.00;15.88;;;;;;;;;;2074912;28;20030;-58
2023/10/17 02:50:58;;;;;;;26.13;15.73;;;;;;;;;;2074834;28;20040;-58
2023/10/17 02:52:00;;;;;;;29.30;17.55;;;;;;;;;;2073789;28;20052;-58
2023/10/17 02:53:00;;;;;;;28.33;17.27;;;;;;;;;;2074326;28;20042;-58
2023/10/17 02:54:05;;;;;;;28.88;17.60;;;;;;;;;;2073610;28;20516;-58
2023/10/17 02:55:08;;;;;;;27.70;16.88;;;;;;;;;;2073844;28;20041;-58
2023/10/17 02:56:19;;;;;;;25.20;16.23;;;;;;;;;;2074454;28;20082;-59
2023/10/17 02:57:19;;;;;;;26.75;16.05;;;;;;;;;;2074341;28;20030;-58
2023/10/17 02:58:20;;;;;;;25.50;15.55;;;;;;;;;;2074382;28;20029;-58
2023/10/17 02:59:24;;;;;;;30.13;16.90;;;;;;;;;;2074314;28;20041;-59
2023/10/17 03:00:34;;;;;;;24.95;15.65;;;;;;;;;;2074263;28;20033;-58
2023/10/17 03:01:38;;;;;;;29.77;17.50;;;;;;;;;;2073849;28;20128;-58
2023/10/17 03:02:40;;;;;;;129.85;29.60;;;;;;;;;;2074134;28;20033;-58
2023/10/17 03:03:41;;;;;;;66.40;21.73;;;;;;;;;;2074443;28;20152;-58
2023/10/17 03:04:43;;;;;;;39.55;21.52;;;;;;;;;;2073621;28;20045;-58
2023/10/17 03:05:50;;;;;;;33.42;19.10;;;;;;;;;;2066132;28;20482;-58
2023/10/17 03:06:54;;;;;;;31.73;18.27;;;;;;;;;;2074236;28;20034;-58
2023/10/17 03:07:54;;;;;;;32.53;18.50;;;;;;;;;;2073626;28;20034;-58
2023/10/17 03:09:00;;;;;;;31.88;19.15;;;;;;;;;;2074196;28;20050;-58
2023/10/17 03:10:02;;;;;;;99.78;22.85;;;;;;;;;;2074869;28;20041;-58
2023/10/17 03:11:08;;;;;;;30.17;18.23;;;;;;;;;;2074780;28;20045;-59
2023/10/17 03:12:19;;;;;;;24.40;16.30;;;;;;;;;;2074531;28;20056;-58
2023/10/17 03:13:39;;;;;;;31.05;18.58;;;;;;;;;;2065568;28;20091;-58
2023/10/17 03:15:53;;;;;;;30.23;18.95;;;;;;;;;;2073594;28;20054;-58
2023/10/17 03:16:54;;;;;;;34.33;18.10;;;;;;;;;;2073956;28;20042;-58
2023/10/17 03:18:00;;;;;;;36.20;19.13;;;;;;;;;;2074217;28;20033;-58
2023/10/17 03:19:05;;;;;;;38.70;20.13;;;;;;;;;;2074085;28;20038;-58
2023/10/17 03:20:10;;;;;;;30.20;18.35;;;;;;;;;;2066367;28;20050;-58
2023/10/17 03:21:11;;;;;;;32.63;18.25;;;;;;;;;;2074043;28;20045;-58
2023/10/17 03:22:19;;;;;;;34.17;18.75;;;;;;;;;;2074014;28;20045;-58
2023/10/17 03:23:20;;;;;;;31.20;17.83;;;;;;;;;;2073584;28;20049;-58
2023/10/17 03:24:28;;;;;;;38.17;20.55;;;;;;;;;;2074206;28;20517;-58
2023/10/17 03:25:37;;;;;;;32.35;19.20;;;;;;;;;;2073738;28;20052;-57
2023/10/17 03:26:54;;;;;;;33.42;18.60;;;;;;;;;;2066851;28;20410;-58
2023/10/17 03:27:55;;;;;;;32.25;19.27;;;;;;;;;;2074145;28;20034;-58
2023/10/17 03:28:56;;;;;;;31.88;18.65;;;;;;;;;;2065414;28;20049;-58
2023/10/17 03:30:05;;;;;;;35.10;18.73;;;;;;;;;;2065790;28;20045;-58
2023/10/17 03:31:20;;;;;;;35.67;21.33;;;;;;;;;;2074612;28;20053;-58
2023/10/17 03:32:23;;;;;;;33.55;19.25;;;;;;;;;;2074234;28;20048;-58
2023/10/17 03:33:27;;;;;;;34.67;19.70;;;;;;;;;;2073928;28;20038;-58
2023/10/17 03:34:37;;;;;;;34.65;19.80;;;;;;;;;;2073298;28;20053;-59
2023/10/17 03:37:07;;;;;;;29.92;18.70;;;;;;;;;;2068602;28;20038;-58
2023/10/17 03:38:10;;;;;;;30.65;17.98;;;;;;;;;;2073431;28;20489;-58
2023/10/17 03:39:29;;;;;;;28.50;17.58;;;;;;;;;;2073911;28;20038;-59
2023/10/17 03:40:30;;;;;;;31.35;17.70;;;;;;;;;;2073900;28;20042;-58
2023/10/17 03:41:31;;;;;;;35.05;17.83;;;;;;;;;;2073789;28;20052;-58
2023/10/17 03:43:39;;;;;;;31.42;18.75;;;;;;;;;;2074309;28;20037;-58
2023/10/17 03:44:39;;;;;;;30.52;18.25;;;;;;;;;;2074344;28;20065;-58
2023/10/17 03:45:43;;;;;;;32.00;19.30;;;;;;;;;;2074258;28;20057;-58
2023/10/17 03:46:47;;;;;;;30.92;19.10;;;;;;;;;;2074348;28;20042;-58
2023/10/17 03:47:53;;;;;;;35.10;18.85;;;;;;;;;;2074560;28;20033;-59
2023/10/17 03:49:00;;;;;;;33.38;20.38;;;;;;;;;;2074772;28;20038;-58
2023/10/17 03:50:06;;;;;;;29.25;19.35;;;;;;;;;;2074370;28;20038;-59
2023/10/17 03:52:08;;;;;;;30.63;19.13;;;;;;;;;;2074370;28;20033;-59
2023/10/17 03:53:15;;;;;;;34.92;20.17;;;;;;;;;;2074383;28;20470;-58
2023/10/17 03:54:18;;;;;;;32.67;21.05;;;;;;;;;;2074586;28;20378;-58
2023/10/17 03:55:21;;;;;;;32.00;20.90;;;;;;;;;;2073800;28;20482;-58
2023/10/17 03:56:24;;;;;;;35.40;22.45;;;;;;;;;;2074012;28;20049;-61
2023/10/17 03:57:28;;;;;;;31.95;18.88;;;;;;;;;;2074050;28;20041;-59
2023/10/17 03:59:38;;;;;;;32.35;22.02;;;;;;;;;;2074511;28;20042;-58
2023/10/17 04:00:44;;;;;;;34.58;20.40;;;;;;;;;;2074452;28;20042;-58
2023/10/17 04:01:47;;;;;;;33.47;20.67;;;;;;;;;;2074412;28;20053;-59
2023/10/17 04:02:49;;;;;;;37.88;19.15;;;;;;;;;;2074399;28;20029;-58
2023/10/17 04:03:56;;;;;;;37.83;19.95;;;;;;;;;;2073723;28;20045;-58
2023/10/17 04:04:56;;;;;;;32.83;19.55;;;;;;;;;;2074260;28;20042;-59
2023/10/17 04:07:08;;;;;;;32.28;20.33;;;;;;;;;;2074454;28;20053;-58
2023/10/17 04:08:09;;;;;;;34.70;20.67;;;;;;;;;;2074618;28;20378;-58
2023/10/17 04:10:35;;;;;;;33.10;20.20;;;;;;;;;;2074689;28;20049;-58
2023/10/17 04:11:36;;;;;;;32.20;20.10;;;;;;;;;;2074545;28;20046;-58
2023/10/17 04:12:48;;;;;;;29.52;20.10;;;;;;;;;;2074340;28;20054;-58
2023/10/17 04:13:52;;;;;;;30.70;18.63;;;;;;;;;;2074359;28;20034;-58
2023/10/17 04:14:58;;;;;;;34.55;20.08;;;;;;;;;;2074336;28;20033;-59
2023/10/17 04:15:59;;;;;;;36.83;20.15;;;;;;;;;;2074197;28;20049;-58
2023/10/17 04:17:03;;;;;;;30.92;18.63;;;;;;;;;;2074376;28;20382;-58
2023/10/17 04:18:04;;;;;;;36.15;20.80;;;;;;;;;;2074360;28;20048;-59
2023/10/17 04:19:08;;;;;;;31.23;18.67;;;;;;;;;;2073947;28;20386;-58
2023/10/17 04:20:11;;;;;;;34.83;20.05;;;;;;;;;;2074578;28;20034;-58
2023/10/17 04:21:26;;;;;;;30.25;19.02;;;;;;;;;;2074166;28;20058;-59
2023/10/17 04:22:29;;;;;;;33.85;20.23;;;;;;;;;;2074307;28;20041;-59
2023/10/17 04:23:31;;;;;;;32.78;19.73;;;;;;;;;;2074234;28;20037;-58
2023/10/17 04:24:35;;;;;;;40.63;22.83;;;;;;;;;;2073519;28;20056;-58
2023/10/17 04:25:37;;;;;;;34.60;21.23;;;;;;;;;;2073525;28;20096;-59
2023/10/17 04:26:45;;;;;;;30.65;18.60;;;;;;;;;;2073980;28;20549;-58
2023/10/17 04:27:46;;;;;;;36.25;20.55;;;;;;;;;;2074252;28;20359;-58
2023/10/17 04:28:50;;;;;;;34.72;19.75;;;;;;;;;;2074316;28;20041;-59
2023/10/17 04:29:51;;;;;;;35.47;20.52;;;;;;;;;;2073893;28;20049;-59
2023/10/17 04:30:56;;;;;;;36.45;21.10;;;;;;;;;;2074093;28;20034;-59
2023/10/17 04:31:57;;;;;;;34.95;21.45;;;;;;;;;;2074113;28;20033;-58
2023/10/17 04:33:12;;;;;;;35.38;21.05;;;;;;;;;;2074345;28;20029;-59
2023/10/17 04:34:18;;;;;;;35.58;20.05;;;;;;;;;;2074163;28;20045;-58
2023/10/17 04:35:20;;;;;;;37.72;20.33;;;;;;;;;;2074421;28;20046;-58
2023/10/17 04:36:21;;;;;;;32.08;20.25;;;;;;;;;;2074134;28;20053;-58
2023/10/17 04:37:24;;;;;;;38.58;23.27;;;;;;;;;;2073457;28;20056;-59
2023/10/17 04:39:35;;;;;;;36.42;20.20;;;;;;;;;;2074029;28;20045;-59
2023/10/17 04:40:50;;;;;;;100.30;29.17;;;;;;;;;;2073976;28;20386;-59
2023/10/17 04:43:55;;;;;;;38.03;21.02;;;;;;;;;;2073977;28;20470;-58
2023/10/17 04:45:05;;;;;;;35.28;20.98;;;;;;;;;;2073537;28;20063;-59
2023/10/17 04:46:08;;;;;;;37.20;19.83;;;;;;;;;;2074219;28;20034;-59
2023/10/17 04:48:32;;;;;;;32.85;19.90;;;;;;;;;;2074207;28;20046;-59
2023/10/17 04:49:35;;;;;;;33.03;18.55;;;;;;;;;;2073860;28;20050;-59
2023/10/17 04:50:44;;;;;;;32.67;20.15;;;;;;;;;;2073422;28;20042;-58
2023/10/17 04:51:44;;;;;;;31.45;18.98;;;;;;;;;;2074011;28;20037;-58
2023/10/17 04:52:46;;;;;;;30.63;20.20;;;;;;;;;;2073585;28;20037;-59
2023/10/17 04:53:48;;;;;;;35.20;20.15;;;;;;;;;;2074101;28;20026;-59
2023/10/17 04:54:53;;;;;;;34.80;20.20;;;;;;;;;;2073919;28;20041;-59
2023/10/17 04:56:08;;;;;;;37.38;21.90;;;;;;;;;;2073649;28;20042;-59
2023/10/17 04:57:09;;;;;;;36.90;20.92;;;;;;;;;;2073938;28;20057;-59
2023/10/17 04:58:30;;;;;;;41.08;21.35;;;;;;;;;;2074210;28;20510;-59
2023/10/17 05:03:32;;;;;;;30.30;20.17;;;;;;;;;;2069511;28;20117;-59
2023/10/17 05:04:51;;;;;;;36.20;19.30;;;;;;;;;;2074081;28;20057;-59
2023/10/17 05:07:16;;;;;;;39.75;20.85;;;;;;;;;;2074295;28;20049;-59
2023/10/17 05:08:32;;;;;;;41.80;21.52;;;;;;;;;;2073982;28;20471;-59
2023/10/17 06:16:51;;;;;;;31.77;18.48;;;;;;;;;;2075568;28;20474;-58
2023/10/17 06:17:53;;;;;;;33.63;18.38;;;;;;;;;;2076345;28;20459;-57
2023/10/17 06:18:56;;;;;;;40.05;20.73;;;;;;;;;;2076536;28;20036;-58
2023/10/17 06:20:00;;;;;;;36.63;21.33;;;;;;;;;;2076581;28;20042;-58
2023/10/17 06:23:23;;;;;;;39.08;21.20;;;;;;;;;;2076283;28;20061;-60
2023/10/17 06:26:59;;;;;;;44.75;23.63;;;;;;;;;;2075954;28;20046;-58
2023/10/17 06:30:29;;;;;;;48.58;25.02;;;;;;;;;;2076215;28;20041;-58
2023/10/17 06:31:42;;;;;;;53.55;24.33;;;;;;;;;;2076062;28;20042;-58
2023/10/17 06:32:48;;;;;;;50.75;22.70;;;;;;;;;;2076191;28;20516;-58
2023/10/17 06:33:52;;;;;;;47.10;25.88;;;;;;;;;;2076440;28;20029;-59
2023/10/17 06:35:03;;;;;;;48.47;26.27;;;;;;;;;;2076249;28;20049;-58
2023/10/17 06:36:13;;;;;;;47.05;22.80;;;;;;;;;;2076365;28;20048;-58
2023/10/17 06:37:20;;;;;;;52.47;21.42;;;;;;;;;;2076527;28;20045;-59
2023/10/17 06:38:27;;;;;;;52.38;23.85;;;;;;;;;;2076374;28;20485;-58
2023/10/17 06:39:37;;;;;;;63.80;28.10;;;;;;;;;;2076119;28;20042;-58
2023/10/17 06:40:44;;;;;;;50.67;23.90;;;;;;;;;;2075753;28;20042;-58
2023/10/17 06:41:45;;;;;;;52.40;25.15;;;;;;;;;;2075396;28;20049;-58
2023/10/17 06:42:50;;;;;;;50.20;27.17;;;;;;;;;;2074631;28;20038;-58
2023/10/17 06:43:54;;;;;;;52.38;27.35;;;;;;;;;;2074756;28;20026;-58
2023/10/17 06:45:01;;;;;;;50.47;24.60;;;;;;;;;;2074573;28;20034;-58
2023/10/17 06:46:12;;;;;;;66.90;27.88;;;;;;;;;;2074860;28;20034;-58
2023/10/17 06:47:20;;;;;;;53.13;24.73;;;;;;;;;;2074833;28;20386;-58
2023/10/17 06:49:08;;;;;;;52.17;24.90;;;;;;;;;;2074734;28;20101;-59
2023/10/17 06:52:23;;;;;;;;;;;;;;;;;;2074776;28;20041;-58
2023/10/17 06:53:31;;;;;;;72.90;22.25;;;;;;;;;;2073555;28;19936;-58
2023/10/17 06:54:40;;;;;;;65.85;23.30;;;;;;;;;;2074580;28;20037;-58
2023/10/17 06:55:44;;;;;;;108.78;31.17;;;;;;;;;;2074707;28;20049;-57
2023/10/17 06:56:45;;;;;;;89.68;27.05;;;;;;;;;;2074521;28;20029;-57
2023/10/17 06:57:45;;;;;;;108.25;30.23;;;;;;;;;;2073571;28;20113;-57
2023/10/17 06:58:47;;;;;;;110.65;36.55;;;;;;;;;;2074778;28;20042;-58
2023/10/17 06:59:51;;;;;;;114.32;31.98;;;;;;;;;;2074906;28;20034;-57
2023/10/17 07:00:53;;;;;;;111.30;33.17;;;;;;;;;;2074047;28;20034;-58
2023/10/17 07:03:15;;;;;;;52.13;20.65;;;;;;;;;;2057275;28;20051;-58
2023/10/17 07:04:16;;;;;;;79.10;27.10;;;;;;;;;;2070586;28;20053;-58
2023/10/17 07:05:23;;;;;;;74.53;30.23;;;;;;;;;;2074168;28;20042;-58
2023/10/17 07:06:24;;;;;;;70.68;28.10;;;;;;;;;;2074157;28;20506;-58
2023/10/17 07:07:31;;;;;;;64.10;28.83;;;;;;;;;;2075175;28;20438;-58
2023/10/17 07:08:36;;;;;;;73.00;30.30;;;;;;;;;;2075007;28;20030;-58
2023/10/17 07:09:39;;;;;;;64.95;26.70;;;;;;;;;;2074242;28;20045;-58
2023/10/17 07:10:53;;;;;;;68.68;32.00;;;;;;;;;;2075001;28;20026;-58
2023/10/17 07:11:54;;;;;;;78.28;31.60;;;;;;;;;;2074796;28;20033;-58
2023/10/17 07:13:17;;;;;;;73.65;27.05;;;;;;;;;;2074575;28;20038;-59
2023/10/17 07:14:24;;;;;;;54.03;26.00;;;;;;;;;;2074602;28;20038;-58
2023/10/17 07:15:27;;;;;;;61.70;26.67;;;;;;;;;;2074987;28;20458;-57
2023/10/17 07:16:34;;;;;;;67.55;25.83;;;;;;;;;;2074663;28;20061;-58
2023/10/17 07:17:43;;;;;;;57.63;27.77;;;;;;;;;;2075006;28;20052;-57
2023/10/17 07:18:44;;;;;;;97.85;32.10;;;;;;;;;;2074767;28;20034;-58
2023/10/17 07:19:47;;;;;;;58.00;29.05;;;;;;;;;;2074785;28;20381;-58
2023/10/17 07:22:08;;;;;;;56.55;26.40;;;;;;;;;;2074899;28;20041;-58
2023/10/17 07:23:15;;;;;;;69.35;26.92;;;;;;;;;;2074687;28;20053;-58
2023/10/17 07:24:16;;;;;;;87.15;32.60;;;;;;;;;;2074824;28;20385;-58
2023/10/17 07:25:18;;;;;;;64.70;27.70;;;;;;;;;;2074759;28;20045;-59
2023/10/17 07:27:33;;;;;;;70.68;32.05;;;;;;;;;;2074745;28;20041;-58
2023/10/17 07:28:34;;;;;;;56.42;30.13;;;;;;;;;;2074757;28;20034;-58
2023/10/17 07:29:36;;;;;;;60.38;30.05;;;;;;;;;;2074767;28;20025;-58
2023/10/17 07:30:49;;;;;;;63.38;31.13;;;;;;;;;;2074681;28;20484;-58
2023/10/17 07:31:52;;;;;;;69.15;29.80;;;;;;;;;;2073574;28;20061;-57
2023/10/17 07:32:56;;;;;;;51.75;27.65;;;;;;;;;;2074134;28;20537;-57
2023/10/17 07:34:07;;;;;;;52.92;28.38;;;;;;;;;;2074509;28;20042;-58
2023/10/17 07:35:08;;;;;;;60.97;29.65;;;;;;;;;;2074560;28;20042;-58
2023/10/17 07:36:15;;;;;;;49.70;28.90;;;;;;;;;;2074527;28;20394;-59
2023/10/17 07:37:25;;;;;;;49.03;27.60;;;;;;;;;;2074874;28;20034;-57
2023/10/17 07:38:28;;;;;;;45.97;22.27;;;;;;;;;;2073687;28;20505;-57
2023/10/17 07:39:36;;;;;;;48.03;21.98;;;;;;;;;;2073679;28;20430;-57
2023/10/17 07:41:44;;;;;;;63.00;26.30;;;;;;;;;;2074444;28;20069;-58
2023/10/17 07:42:45;;;;;;;54.50;26.27;;;;;;;;;;2074133;28;20049;-58
2023/10/17 07:43:51;;;;;;;56.53;26.85;;;;;;;;;;2074587;28;20478;-58
2023/10/17 07:44:52;;;;;;;53.75;26.65;;;;;;;;;;2074449;28;20026;-57
2023/10/17 07:46:00;;;;;;;62.13;25.70;;;;;;;;;;2074567;28;20406;-58
2023/10/17 07:48:26;;;;;;;52.05;24.00;;;;;;;;;;2074798;28;20052;-59
2023/10/17 07:49:27;;;;;;;50.72;25.30;;;;;;;;;;2074123;28;20045;-57
2023/10/17 07:50:28;;;;;;;47.42;23.05;;;;;;;;;;2073867;28;20081;-58
2023/10/17 07:51:29;;;;;;;38.13;21.63;;;;;;;;;;2074609;28;20030;-58
2023/10/17 07:52:33;;;;;;;50.10;26.08;;;;;;;;;;2074591;28;20065;-60
2023/10/17 07:53:33;;;;;;;67.28;29.10;;;;;;;;;;2073608;28;20045;-57
2023/10/17 07:54:38;;;;;;;55.47;26.00;;;;;;;;;;2073531;28;20050;-57
2023/10/17 07:55:46;;;;;;;51.53;26.88;;;;;;;;;;2074219;28;20046;-57
2023/10/17 07:56:51;;;;;;;46.90;24.25;;;;;;;;;;2074371;28;20053;-57